sensor_id;sensor_type;location;lat;lon;timestamp;temperature;humidity
69418;DHT22;56610;48.872;2.400;2022-08-19T00:01:34;22.70;99.90
69418;DHT22;56610;48.872;2.400;2022-08-19T00:04:01;22.60;99.90
69418;DHT22;56610;48.872;2.400;2022-08-19T00:06:28;22.60;99.90
69418;DHT22;56610;48.872;2.400;2022-08-19T00:08:54;22.60;99.90
69418;DHT22;56610;48.872;2.400;2022-08-19T00:11:19;22.40;99.90
69418;DHT22;56610;48.872;2.400;2022-08-19T00:13:45;22.60;99.90
69418;DHT22;56610;48.872;2.400;2022-08-19T00:16:13;22.50;99.90
69418;DHT22;56610;48.872;2.400;2022-08-19T00:18:39;22.50;99.90
69418;DHT22;56610;48.872;2.400;2022-08-19T00:21:04;22.70;99.90
69418;DHT22;56610;48.872;2.400;2022-08-19T00:23:34;22.50;99.90
69418;DHT22;56610;48.872;2.400;2022-08-19T00:26:02;22.60;99.90
69418;DHT22;56610;48.872;2.400;2022-08-19T00:28:28;22.70;99.90
69418;DHT22;56610;48.872;2.400;2022-08-19T00:30:54;22.60;99.90
69418;DHT22;56610;48.872;2.400;2022-08-19T00:33:21;22.60;99.90
69418;DHT22;56610;48.872;2.400;2022-08-19T00:35:46;22.40;99.90
69418;DHT22;56610;48.872;2.400;2022-08-19T00:38:12;22.30;99.90
69418;DHT22;56610;48.872;2.400;2022-08-19T00:40:38;22.30;99.90
69418;DHT22;56610;48.872;2.400;2022-08-19T00:43:11;22.20;99.90
69418;DHT22;56610;48.872;2.400;2022-08-19T00:45:39;22.10;99.90
69418;DHT22;56610;48.872;2.400;2022-08-19T00:48:07;22.10;99.90
69418;DHT22;56610;48.872;2.400;2022-08-19T00:50:33;22.10;99.90
69418;DHT22;56610;48.872;2.400;2022-08-19T00:52:59;22.10;99.90
69418;DHT22;56610;48.872;2.400;2022-08-19T00:55:30;22.10;99.90
69418;DHT22;56610;48.872;2.400;2022-08-19T00:58:02;22.20;99.90
69418;DHT22;56610;48.872;2.400;2022-08-19T01:00:32;22.10;99.90
69418;DHT22;56610;48.872;2.400;2022-08-19T01:02:59;22.10;99.90
69418;DHT22;56610;48.872;2.400;2022-08-19T01:05:27;22.00;99.90
69418;DHT22;56610;48.872;2.400;2022-08-19T01:07:53;22.00;99.90
69418;DHT22;56610;48.872;2.400;2022-08-19T01:10:23;22.10;99.90
69418;DHT22;56610;48.872;2.400;2022-08-19T01:12:50;22.00;99.90
69418;DHT22;56610;48.872;2.400;2022-08-19T01:15:21;22.10;99.90
69418;DHT22;56610;48.872;2.400;2022-08-19T01:17:48;22.10;99.90
69418;DHT22;56610;48.872;2.400;2022-08-19T01:20:18;22.00;99.90
69418;DHT22;56610;48.872;2.400;2022-08-19T01:22:49;21.90;99.90
69418;DHT22;56610;48.872;2.400;2022-08-19T01:25:17;21.80;99.90
69418;DHT22;56610;48.872;2.400;2022-08-19T01:27:46;21.80;99.90
69418;DHT22;56610;48.872;2.400;2022-08-19T01:30:16;21.70;99.90
69418;DHT22;56610;48.872;2.400;2022-08-19T01:32:42;21.70;99.90
69418;DHT22;56610;48.872;2.400;2022-08-19T01:35:10;21.70;99.90
69418;DHT22;56610;48.872;2.400;2022-08-19T01:37:52;21.70;99.90
69418;DHT22;56610;48.872;2.400;2022-08-19T01:40:20;21.60;99.90
69418;DHT22;56610;48.872;2.400;2022-08-19T01:42:48;21.60;99.90
69418;DHT22;56610;48.872;2.400;2022-08-19T01:45:14;21.60;99.90
69418;DHT22;56610;48.872;2.400;2022-08-19T01:47:40;21.50;99.90
69418;DHT22;56610;48.872;2.400;2022-08-19T01:50:07;21.50;99.90
69418;DHT22;56610;48.872;2.400;2022-08-19T01:52:36;21.50;99.90
69418;DHT22;56610;48.872;2.400;2022-08-19T01:55:01;21.50;99.90
69418;DHT22;56610;48.872;2.400;2022-08-19T01:57:27;21.50;99.90
69418;DHT22;56610;48.872;2.400;2022-08-19T01:59:53;21.50;99.90
69418;DHT22;56610;48.872;2.400;2022-08-19T02:02:19;21.50;99.90
69418;DHT22;56610;48.872;2.400;2022-08-19T02:04:44;21.50;99.90
69418;DHT22;56610;48.872;2.400;2022-08-19T02:07:11;21.50;99.90
69418;DHT22;56610;48.872;2.400;2022-08-19T02:09:36;21.40;99.90
69418;DHT22;56610;48.872;2.400;2022-08-19T02:12:04;21.40;99.90
69418;DHT22;56610;48.872;2.400;2022-08-19T02:14:30;21.30;99.90
69418;DHT22;56610;48.872;2.400;2022-08-19T02:16:55;21.30;99.90
69418;DHT22;56610;48.872;2.400;2022-08-19T02:19:21;21.30;99.90
69418;DHT22;56610;48.872;2.400;2022-08-19T02:21:47;21.30;99.90
69418;DHT22;56610;48.872;2.400;2022-08-19T02:24:13;21.20;99.90
69418;DHT22;56610;48.872;2.400;2022-08-19T02:26:39;21.10;99.90
69418;DHT22;56610;48.872;2.400;2022-08-19T02:29:05;21.10;99.90
69418;DHT22;56610;48.872;2.400;2022-08-19T02:31:30;21.10;99.90
69418;DHT22;56610;48.872;2.400;2022-08-19T02:33:57;21.20;99.90
69418;DHT22;56610;48.872;2.400;2022-08-19T02:36:24;21.20;99.90
69418;DHT22;56610;48.872;2.400;2022-08-19T02:38:51;21.20;99.90
69418;DHT22;56610;48.872;2.400;2022-08-19T02:44:04;21.20;99.90
69418;DHT22;56610;48.872;2.400;2022-08-19T02:46:32;21.10;99.90
69418;DHT22;56610;48.872;2.400;2022-08-19T02:49:04;21.10;99.90
69418;DHT22;56610;48.872;2.400;2022-08-19T02:51:42;21.00;99.90
69418;DHT22;56610;48.872;2.400;2022-08-19T02:54:09;21.00;99.90
69418;DHT22;56610;48.872;2.400;2022-08-19T02:56:37;21.00;99.90
69418;DHT22;56610;48.872;2.400;2022-08-19T02:59:04;21.10;99.90
69418;DHT22;56610;48.872;2.400;2022-08-19T03:01:34;21.10;99.90
69418;DHT22;56610;48.872;2.400;2022-08-19T03:04:02;21.10;99.90
69418;DHT22;56610;48.872;2.400;2022-08-19T03:06:28;21.20;99.90
69418;DHT22;56610;48.872;2.400;2022-08-19T03:08:55;21.40;99.90
69418;DHT22;56610;48.872;2.400;2022-08-19T03:11:26;21.40;99.90
69418;DHT22;56610;48.872;2.400;2022-08-19T03:13:52;21.50;99.90
69418;DHT22;56610;48.872;2.400;2022-08-19T03:16:21;21.50;99.90
69418;DHT22;56610;48.872;2.400;2022-08-19T03:18:48;21.50;99.90
69418;DHT22;56610;48.872;2.400;2022-08-19T03:21:18;21.40;99.90
69418;DHT22;56610;48.872;2.400;2022-08-19T03:23:45;21.40;99.90
69418;DHT22;56610;48.872;2.400;2022-08-19T03:26:11;21.40;99.90
69418;DHT22;56610;48.872;2.400;2022-08-19T03:28:37;21.30;99.90
69418;DHT22;56610;48.872;2.400;2022-08-19T03:31:10;21.20;99.90
69418;DHT22;56610;48.872;2.400;2022-08-19T03:33:37;21.30;99.90
69418;DHT22;56610;48.872;2.400;2022-08-19T03:36:07;21.30;99.90
69418;DHT22;56610;48.872;2.400;2022-08-19T03:38:36;21.30;99.90
69418;DHT22;56610;48.872;2.400;2022-08-19T03:41:02;21.30;99.90
69418;DHT22;56610;48.872;2.400;2022-08-19T03:43:27;21.40;99.90
69418;DHT22;56610;48.872;2.400;2022-08-19T03:46:05;21.40;99.90
69418;DHT22;56610;48.872;2.400;2022-08-19T03:48:32;21.40;99.90
69418;DHT22;56610;48.872;2.400;2022-08-19T03:50:59;21.40;99.90
69418;DHT22;56610;48.872;2.400;2022-08-19T03:53:26;21.40;99.90
69418;DHT22;56610;48.872;2.400;2022-08-19T03:55:52;21.40;99.90
69418;DHT22;56610;48.872;2.400;2022-08-19T03:58:19;21.40;99.90
69418;DHT22;56610;48.872;2.400;2022-08-19T04:00:45;21.40;99.90
69418;DHT22;56610;48.872;2.400;2022-08-19T04:03:10;21.40;99.90
69418;DHT22;56610;48.872;2.400;2022-08-19T04:05:36;21.40;99.90
69418;DHT22;56610;48.872;2.400;2022-08-19T04:08:04;21.50;99.90
69418;DHT22;56610;48.872;2.400;2022-08-19T04:10:37;21.40;99.90
69418;DHT22;56610;48.872;2.400;2022-08-19T04:13:04;21.20;99.90
69418;DHT22;56610;48.872;2.400;2022-08-19T04:15:31;21.20;99.90
69418;DHT22;56610;48.872;2.400;2022-08-19T04:18:01;21.20;99.90
69418;DHT22;56610;48.872;2.400;2022-08-19T04:20:27;21.10;99.90
69418;DHT22;56610;48.872;2.400;2022-08-19T04:22:53;21.10;99.90
69418;DHT22;56610;48.872;2.400;2022-08-19T04:25:18;21.10;99.90
69418;DHT22;56610;48.872;2.400;2022-08-19T04:27:44;21.10;99.90
69418;DHT22;56610;48.872;2.400;2022-08-19T04:30:12;21.10;99.90
69418;DHT22;56610;48.872;2.400;2022-08-19T04:32:38;21.10;99.90
69418;DHT22;56610;48.872;2.400;2022-08-19T04:35:04;21.00;99.90
69418;DHT22;56610;48.872;2.400;2022-08-19T04:37:30;21.00;99.90
69418;DHT22;56610;48.872;2.400;2022-08-19T04:39:59;21.10;99.90
69418;DHT22;56610;48.872;2.400;2022-08-19T04:42:43;21.10;99.90
69418;DHT22;56610;48.872;2.400;2022-08-19T04:45:13;21.20;99.90
69418;DHT22;56610;48.872;2.400;2022-08-19T04:47:42;21.10;99.90
69418;DHT22;56610;48.872;2.400;2022-08-19T04:50:09;21.10;99.90
69418;DHT22;56610;48.872;2.400;2022-08-19T04:52:38;21.00;99.90
69418;DHT22;56610;48.872;2.400;2022-08-19T04:55:08;21.00;99.90
69418;DHT22;56610;48.872;2.400;2022-08-19T04:57:33;21.00;99.90
69418;DHT22;56610;48.872;2.400;2022-08-19T04:59:59;21.10;99.90
69418;DHT22;56610;48.872;2.400;2022-08-19T05:02:24;21.20;99.90
69418;DHT22;56610;48.872;2.400;2022-08-19T05:04:55;21.20;99.90
69418;DHT22;56610;48.872;2.400;2022-08-19T05:07:21;21.30;99.90
69418;DHT22;56610;48.872;2.400;2022-08-19T05:09:47;21.10;99.90
69418;DHT22;56610;48.872;2.400;2022-08-19T05:12:12;21.10;99.90
69418;DHT22;56610;48.872;2.400;2022-08-19T05:14:38;21.10;99.90
69418;DHT22;56610;48.872;2.400;2022-08-19T05:17:04;21.10;99.90
69418;DHT22;56610;48.872;2.400;2022-08-19T05:19:29;21.10;99.90
69418;DHT22;56610;48.872;2.400;2022-08-19T05:22:13;21.20;99.90
69418;DHT22;56610;48.872;2.400;2022-08-19T05:24:58;21.30;99.90
69418;DHT22;56610;48.872;2.400;2022-08-19T05:27:25;21.40;99.90
69418;DHT22;56610;48.872;2.400;2022-08-19T05:29:51;21.40;99.90
69418;DHT22;56610;48.872;2.400;2022-08-19T05:32:16;21.50;99.90
69418;DHT22;56610;48.872;2.400;2022-08-19T05:34:42;21.40;99.90
69418;DHT22;56610;48.872;2.400;2022-08-19T05:37:10;21.40;99.90
69418;DHT22;56610;48.872;2.400;2022-08-19T05:39:39;21.40;99.90
69418;DHT22;56610;48.872;2.400;2022-08-19T05:42:07;21.40;99.90
69418;DHT22;56610;48.872;2.400;2022-08-19T05:44:37;21.40;99.90
69418;DHT22;56610;48.872;2.400;2022-08-19T05:47:06;21.40;99.90
69418;DHT22;56610;48.872;2.400;2022-08-19T05:49:34;21.40;99.90
69418;DHT22;56610;48.872;2.400;2022-08-19T05:52:03;21.60;99.90
69418;DHT22;56610;48.872;2.400;2022-08-19T05:54:29;21.60;99.90
69418;DHT22;56610;48.872;2.400;2022-08-19T05:56:55;21.70;99.90
69418;DHT22;56610;48.872;2.400;2022-08-19T05:59:21;21.70;99.90
69418;DHT22;56610;48.872;2.400;2022-08-19T06:01:48;21.70;99.90
69418;DHT22;56610;48.872;2.400;2022-08-19T06:04:19;21.70;99.90
69418;DHT22;56610;48.872;2.400;2022-08-19T06:06:47;21.70;99.90
69418;DHT22;56610;48.872;2.400;2022-08-19T06:09:13;21.70;99.90
69418;DHT22;56610;48.872;2.400;2022-08-19T06:11:47;21.60;99.90
69418;DHT22;56610;48.872;2.400;2022-08-19T06:14:17;21.50;99.90
69418;DHT22;56610;48.872;2.400;2022-08-19T06:16:44;21.50;99.90
69418;DHT22;56610;48.872;2.400;2022-08-19T06:19:12;21.50;99.90
69418;DHT22;56610;48.872;2.400;2022-08-19T06:21:40;21.40;99.90
69418;DHT22;56610;48.872;2.400;2022-08-19T06:24:08;21.40;99.90
69418;DHT22;56610;48.872;2.400;2022-08-19T06:26:37;21.50;99.90
69418;DHT22;56610;48.872;2.400;2022-08-19T06:29:04;21.60;99.90
69418;DHT22;56610;48.872;2.400;2022-08-19T06:31:33;21.50;99.90
69418;DHT22;56610;48.872;2.400;2022-08-19T06:34:01;21.40;99.90
69418;DHT22;56610;48.872;2.400;2022-08-19T06:36:34;21.30;99.90
69418;DHT22;56610;48.872;2.400;2022-08-19T06:39:07;21.50;99.90
69418;DHT22;56610;48.872;2.400;2022-08-19T06:41:39;21.50;99.90
69418;DHT22;56610;48.872;2.400;2022-08-19T06:44:06;21.40;99.90
69418;DHT22;56610;48.872;2.400;2022-08-19T06:46:31;21.50;99.90
69418;DHT22;56610;48.872;2.400;2022-08-19T06:48:58;21.30;99.90
69418;DHT22;56610;48.872;2.400;2022-08-19T06:51:24;21.20;99.90
69418;DHT22;56610;48.872;2.400;2022-08-19T06:53:51;21.20;99.90
69418;DHT22;56610;48.872;2.400;2022-08-19T06:56:20;21.10;99.90
69418;DHT22;56610;48.872;2.400;2022-08-19T06:58:47;21.10;99.90
69418;DHT22;56610;48.872;2.400;2022-08-19T07:01:19;21.20;99.90
69418;DHT22;56610;48.872;2.400;2022-08-19T07:03:45;21.20;99.90
69418;DHT22;56610;48.872;2.400;2022-08-19T07:06:14;21.30;99.90
69418;DHT22;56610;48.872;2.400;2022-08-19T07:08:46;21.30;99.90
69418;DHT22;56610;48.872;2.400;2022-08-19T07:11:15;21.40;99.90
69418;DHT22;56610;48.872;2.400;2022-08-19T07:13:42;21.40;99.90
69418;DHT22;56610;48.872;2.400;2022-08-19T07:16:12;21.30;99.90
69418;DHT22;56610;48.872;2.400;2022-08-19T07:18:38;21.20;99.90
69418;DHT22;56610;48.872;2.400;2022-08-19T07:21:05;21.20;99.90
69418;DHT22;56610;48.872;2.400;2022-08-19T07:23:31;21.20;99.90
69418;DHT22;56610;48.872;2.400;2022-08-19T07:25:57;21.10;99.90
69418;DHT22;56610;48.872;2.400;2022-08-19T07:28:23;21.10;99.90
69418;DHT22;56610;48.872;2.400;2022-08-19T07:30:49;21.20;99.90
69418;DHT22;56610;48.872;2.400;2022-08-19T07:33:15;21.20;99.90
69418;DHT22;56610;48.872;2.400;2022-08-19T07:35:42;21.20;99.90
69418;DHT22;56610;48.872;2.400;2022-08-19T07:38:07;21.30;99.90
69418;DHT22;56610;48.872;2.400;2022-08-19T07:40:33;21.50;99.90
69418;DHT22;56610;48.872;2.400;2022-08-19T07:42:58;21.50;99.90
69418;DHT22;56610;48.872;2.400;2022-08-19T07:45:24;21.60;99.90
69418;DHT22;56610;48.872;2.400;2022-08-19T07:47:50;21.60;99.90
69418;DHT22;56610;48.872;2.400;2022-08-19T07:50:16;21.60;99.90
69418;DHT22;56610;48.872;2.400;2022-08-19T07:52:44;21.70;99.90
69418;DHT22;56610;48.872;2.400;2022-08-19T07:55:10;21.70;99.90
69418;DHT22;56610;48.872;2.400;2022-08-19T07:57:36;21.80;99.90
69418;DHT22;56610;48.872;2.400;2022-08-19T08:00:04;21.80;99.90
69418;DHT22;56610;48.872;2.400;2022-08-19T08:02:30;21.80;99.90
69418;DHT22;56610;48.872;2.400;2022-08-19T08:04:56;21.80;99.90
69418;DHT22;56610;48.872;2.400;2022-08-19T08:07:40;21.80;99.90
69418;DHT22;56610;48.872;2.400;2022-08-19T08:10:24;21.80;99.90
69418;DHT22;56610;48.872;2.400;2022-08-19T08:12:51;22.00;99.90
69418;DHT22;56610;48.872;2.400;2022-08-19T08:15:17;22.00;99.90
69418;DHT22;56610;48.872;2.400;2022-08-19T08:17:44;22.10;99.90
69418;DHT22;56610;48.872;2.400;2022-08-19T08:20:11;22.10;99.90
69418;DHT22;56610;48.872;2.400;2022-08-19T08:22:37;22.30;99.90
69418;DHT22;56610;48.872;2.400;2022-08-19T08:25:26;22.30;99.90
69418;DHT22;56610;48.872;2.400;2022-08-19T08:27:52;22.40;99.90
69418;DHT22;56610;48.872;2.400;2022-08-19T08:30:25;22.40;99.90
69418;DHT22;56610;48.872;2.400;2022-08-19T08:32:52;22.50;99.90
69418;DHT22;56610;48.872;2.400;2022-08-19T08:35:20;22.70;99.90
69418;DHT22;56610;48.872;2.400;2022-08-19T08:37:47;22.70;99.90
69418;DHT22;56610;48.872;2.400;2022-08-19T08:43:11;22.70;99.90
69418;DHT22;56610;48.872;2.400;2022-08-19T08:45:47;22.70;99.90
69418;DHT22;56610;48.872;2.400;2022-08-19T08:48:30;22.70;99.90
69418;DHT22;56610;48.872;2.400;2022-08-19T08:50:59;22.80;99.90
69418;DHT22;56610;48.872;2.400;2022-08-19T08:53:26;22.80;99.90
69418;DHT22;56610;48.872;2.400;2022-08-19T08:55:53;22.90;99.90
69418;DHT22;56610;48.872;2.400;2022-08-19T08:58:36;23.00;99.90
69418;DHT22;56610;48.872;2.400;2022-08-19T09:01:10;23.10;99.90
69418;DHT22;56610;48.872;2.400;2022-08-19T09:03:37;23.10;99.90
69418;DHT22;56610;48.872;2.400;2022-08-19T09:09:16;23.30;99.90
69418;DHT22;56610;48.872;2.400;2022-08-19T09:17:09;23.10;99.90
69418;DHT22;56610;48.872;2.400;2022-08-19T09:19:46;23.10;99.90
69418;DHT22;56610;48.872;2.400;2022-08-19T09:22:12;23.10;99.90
69418;DHT22;56610;48.872;2.400;2022-08-19T09:24:37;23.10;99.90
69418;DHT22;56610;48.872;2.400;2022-08-19T09:27:03;23.20;99.90
69418;DHT22;56610;48.872;2.400;2022-08-19T09:29:29;23.20;99.90
69418;DHT22;56610;48.872;2.400;2022-08-19T09:31:55;23.20;99.90
69418;DHT22;56610;48.872;2.400;2022-08-19T09:34:21;23.30;99.90
69418;DHT22;56610;48.872;2.400;2022-08-19T09:36:48;23.40;99.90
69418;DHT22;56610;48.872;2.400;2022-08-19T09:39:17;23.40;99.90
69418;DHT22;56610;48.872;2.400;2022-08-19T09:41:43;23.40;99.90
69418;DHT22;56610;48.872;2.400;2022-08-19T09:44:08;23.30;99.90
69418;DHT22;56610;48.872;2.400;2022-08-19T09:46:36;23.20;99.90
69418;DHT22;56610;48.872;2.400;2022-08-19T09:49:02;23.30;99.90
69418;DHT22;56610;48.872;2.400;2022-08-19T09:51:29;23.50;99.90
69418;DHT22;56610;48.872;2.400;2022-08-19T09:54:00;23.60;99.90
69418;DHT22;56610;48.872;2.400;2022-08-19T09:56:26;23.90;99.90
69418;DHT22;56610;48.872;2.400;2022-08-19T09:58:52;23.90;99.90
69418;DHT22;56610;48.872;2.400;2022-08-19T10:01:21;23.90;99.90
69418;DHT22;56610;48.872;2.400;2022-08-19T10:03:50;23.90;99.90
69418;DHT22;56610;48.872;2.400;2022-08-19T10:06:17;24.10;99.90
69418;DHT22;56610;48.872;2.400;2022-08-19T10:08:43;24.10;99.90
69418;DHT22;56610;48.872;2.400;2022-08-19T10:11:09;24.10;99.90
69418;DHT22;56610;48.872;2.400;2022-08-19T10:13:35;24.10;99.90
69418;DHT22;56610;48.872;2.400;2022-08-19T10:16:08;24.20;99.90
69418;DHT22;56610;48.872;2.400;2022-08-19T10:18:35;24.10;99.90
69418;DHT22;56610;48.872;2.400;2022-08-19T10:21:06;24.20;99.90
69418;DHT22;56610;48.872;2.400;2022-08-19T10:23:36;24.30;99.90
69418;DHT22;56610;48.872;2.400;2022-08-19T10:26:05;24.30;99.90
69418;DHT22;56610;48.872;2.400;2022-08-19T10:28:34;24.20;99.90
69418;DHT22;56610;48.872;2.400;2022-08-19T10:31:10;24.30;99.90
69418;DHT22;56610;48.872;2.400;2022-08-19T10:33:37;24.40;99.90
69418;DHT22;56610;48.872;2.400;2022-08-19T10:36:09;24.50;99.90
69418;DHT22;56610;48.872;2.400;2022-08-19T10:38:35;24.90;99.90
69418;DHT22;56610;48.872;2.400;2022-08-19T10:41:19;25.00;99.90
69418;DHT22;56610;48.872;2.400;2022-08-19T10:43:46;25.20;99.90
69418;DHT22;56610;48.872;2.400;2022-08-19T10:46:14;25.30;99.90
69418;DHT22;56610;48.872;2.400;2022-08-19T10:48:42;25.20;99.90
69418;DHT22;56610;48.872;2.400;2022-08-19T10:51:08;25.30;99.90
69418;DHT22;56610;48.872;2.400;2022-08-19T10:53:53;25.50;99.90
69418;DHT22;56610;48.872;2.400;2022-08-19T10:56:20;25.70;99.90
69418;DHT22;56610;48.872;2.400;2022-08-19T10:59:05;25.80;99.90
69418;DHT22;56610;48.872;2.400;2022-08-19T11:01:32;25.80;99.90
69418;DHT22;56610;48.872;2.400;2022-08-19T11:04:02;25.90;99.90
69418;DHT22;56610;48.872;2.400;2022-08-19T11:06:29;25.60;99.90
69418;DHT22;56610;48.872;2.400;2022-08-19T11:08:56;25.50;99.90
69418;DHT22;56610;48.872;2.400;2022-08-19T11:14:16;25.20;99.90
69418;DHT22;56610;48.872;2.400;2022-08-19T11:19:31;25.30;99.90
69418;DHT22;56610;48.872;2.400;2022-08-19T11:21:56;25.40;99.90
69418;DHT22;56610;48.872;2.400;2022-08-19T11:24:24;25.50;99.90
69418;DHT22;56610;48.872;2.400;2022-08-19T11:26:52;25.70;99.90
69418;DHT22;56610;48.872;2.400;2022-08-19T11:29:22;25.70;99.90
69418;DHT22;56610;48.872;2.400;2022-08-19T11:31:51;25.50;99.90
69418;DHT22;56610;48.872;2.400;2022-08-19T11:34:20;25.30;99.90
69418;DHT22;56610;48.872;2.400;2022-08-19T11:36:47;25.30;99.90
69418;DHT22;56610;48.872;2.400;2022-08-19T11:39:15;25.40;99.90
69418;DHT22;56610;48.872;2.400;2022-08-19T11:41:42;25.50;99.90
69418;DHT22;56610;48.872;2.400;2022-08-19T11:44:07;25.60;99.90
69418;DHT22;56610;48.872;2.400;2022-08-19T11:46:34;25.70;99.90
69418;DHT22;56610;48.872;2.400;2022-08-19T11:49:01;25.60;99.90
69418;DHT22;56610;48.872;2.400;2022-08-19T11:51:29;25.60;99.90
69418;DHT22;56610;48.872;2.400;2022-08-19T11:53:56;25.60;99.90
69418;DHT22;56610;48.872;2.400;2022-08-19T11:56:22;25.40;99.90
69418;DHT22;56610;48.872;2.400;2022-08-19T11:58:48;25.30;99.90
69418;DHT22;56610;48.872;2.400;2022-08-19T12:01:16;25.30;99.90
69418;DHT22;56610;48.872;2.400;2022-08-19T12:03:42;25.20;99.90
69418;DHT22;56610;48.872;2.400;2022-08-19T12:06:10;25.20;99.90
69418;DHT22;56610;48.872;2.400;2022-08-19T12:08:38;25.10;99.90
69418;DHT22;56610;48.872;2.400;2022-08-19T12:11:04;25.10;99.90
69418;DHT22;56610;48.872;2.400;2022-08-19T12:13:30;25.00;99.90
69418;DHT22;56610;48.872;2.400;2022-08-19T12:15:57;25.00;99.90
69418;DHT22;56610;48.872;2.400;2022-08-19T12:18:23;24.80;99.90
69418;DHT22;56610;48.872;2.400;2022-08-19T12:20:51;24.80;99.90
69418;DHT22;56610;48.872;2.400;2022-08-19T12:23:17;24.70;99.90
69418;DHT22;56610;48.872;2.400;2022-08-19T12:25:45;24.70;99.90
69418;DHT22;56610;48.872;2.400;2022-08-19T12:28:22;24.70;99.90
69418;DHT22;56610;48.872;2.400;2022-08-19T12:30:49;24.50;99.90
69418;DHT22;56610;48.872;2.400;2022-08-19T12:33:19;24.50;99.90
69418;DHT22;56610;48.872;2.400;2022-08-19T12:35:48;24.50;99.90
69418;DHT22;56610;48.872;2.400;2022-08-19T12:38:14;24.50;99.90
69418;DHT22;56610;48.872;2.400;2022-08-19T12:40:40;24.40;99.90
69418;DHT22;56610;48.872;2.400;2022-08-19T12:43:09;24.30;99.90
69418;DHT22;56610;48.872;2.400;2022-08-19T12:45:37;24.40;99.90
69418;DHT22;56610;48.872;2.400;2022-08-19T12:48:03;24.50;99.90
69418;DHT22;56610;48.872;2.400;2022-08-19T12:50:30;24.40;99.90
69418;DHT22;56610;48.872;2.400;2022-08-19T12:52:56;24.40;99.90
69418;DHT22;56610;48.872;2.400;2022-08-19T12:55:22;24.50;99.90
69418;DHT22;56610;48.872;2.400;2022-08-19T12:57:48;24.50;99.90
69418;DHT22;56610;48.872;2.400;2022-08-19T13:00:19;24.60;99.90
69418;DHT22;56610;48.872;2.400;2022-08-19T13:02:48;24.60;99.90
69418;DHT22;56610;48.872;2.400;2022-08-19T13:05:17;24.70;99.90
69418;DHT22;56610;48.872;2.400;2022-08-19T13:07:46;24.70;99.90
69418;DHT22;56610;48.872;2.400;2022-08-19T13:10:14;24.70;99.90
69418;DHT22;56610;48.872;2.400;2022-08-19T13:12:41;24.60;99.90
69418;DHT22;56610;48.872;2.400;2022-08-19T13:15:08;24.60;99.90
69418;DHT22;56610;48.872;2.400;2022-08-19T13:17:35;24.70;99.90
69418;DHT22;56610;48.872;2.400;2022-08-19T13:20:02;24.80;99.90
69418;DHT22;56610;48.872;2.400;2022-08-19T13:22:28;25.00;99.90
69418;DHT22;56610;48.872;2.400;2022-08-19T13:24:53;25.30;99.90
69418;DHT22;56610;48.872;2.400;2022-08-19T13:27:19;25.30;99.90
69418;DHT22;56610;48.872;2.400;2022-08-19T13:29:45;25.30;99.90
69418;DHT22;56610;48.872;2.400;2022-08-19T13:32:30;25.30;99.90
69418;DHT22;56610;48.872;2.400;2022-08-19T13:35:14;25.40;99.90
69418;DHT22;56610;48.872;2.400;2022-08-19T13:37:40;25.40;99.90
69418;DHT22;56610;48.872;2.400;2022-08-19T13:40:12;25.60;99.90
69418;DHT22;56610;48.872;2.400;2022-08-19T13:42:41;25.70;99.90
69418;DHT22;56610;48.872;2.400;2022-08-19T13:45:07;25.80;99.90
69418;DHT22;56610;48.872;2.400;2022-08-19T13:47:34;25.70;99.90
69418;DHT22;56610;48.872;2.400;2022-08-19T13:50:02;25.80;99.90
69418;DHT22;56610;48.872;2.400;2022-08-19T13:52:28;26.00;99.90
69418;DHT22;56610;48.872;2.400;2022-08-19T13:54:54;26.30;99.90
69418;DHT22;56610;48.872;2.400;2022-08-19T13:57:20;26.60;99.90
69418;DHT22;56610;48.872;2.400;2022-08-19T13:59:46;26.80;99.90
69418;DHT22;56610;48.872;2.400;2022-08-19T14:02:11;26.90;99.90
69418;DHT22;56610;48.872;2.400;2022-08-19T14:04:37;27.20;99.90
69418;DHT22;56610;48.872;2.400;2022-08-19T14:07:03;27.30;99.90
69418;DHT22;56610;48.872;2.400;2022-08-19T14:09:29;27.40;99.90
69418;DHT22;56610;48.872;2.400;2022-08-19T14:11:55;27.40;99.90
69418;DHT22;56610;48.872;2.400;2022-08-19T14:14:20;27.60;99.90
69418;DHT22;56610;48.872;2.400;2022-08-19T14:16:46;27.40;99.90
69418;DHT22;56610;48.872;2.400;2022-08-19T14:19:12;27.40;99.90
69418;DHT22;56610;48.872;2.400;2022-08-19T14:21:38;27.30;99.90
69418;DHT22;56610;48.872;2.400;2022-08-19T14:24:06;27.30;99.90
69418;DHT22;56610;48.872;2.400;2022-08-19T14:26:32;27.30;99.90
69418;DHT22;56610;48.872;2.400;2022-08-19T14:28:58;27.30;99.90
69418;DHT22;56610;48.872;2.400;2022-08-19T14:31:24;27.00;99.90
69418;DHT22;56610;48.872;2.400;2022-08-19T14:33:50;26.90;99.90
69418;DHT22;56610;48.872;2.400;2022-08-19T14:36:17;26.80;99.90
69418;DHT22;56610;48.872;2.400;2022-08-19T14:38:43;26.80;99.90
69418;DHT22;56610;48.872;2.400;2022-08-19T14:41:14;26.70;99.90
69418;DHT22;56610;48.872;2.400;2022-08-19T14:43:46;26.60;99.90
69418;DHT22;56610;48.872;2.400;2022-08-19T14:46:18;26.70;99.90
69418;DHT22;56610;48.872;2.400;2022-08-19T14:48:45;27.10;99.90
69418;DHT22;56610;48.872;2.400;2022-08-19T14:51:11;27.40;99.90
69418;DHT22;56610;48.872;2.400;2022-08-19T14:53:38;27.60;99.90
69418;DHT22;56610;48.872;2.400;2022-08-19T14:56:13;27.60;99.90
69418;DHT22;56610;48.872;2.400;2022-08-19T14:58:41;27.60;99.90
69418;DHT22;56610;48.872;2.400;2022-08-19T15:01:12;27.70;99.90
69418;DHT22;56610;48.872;2.400;2022-08-19T15:03:38;27.50;99.90
69418;DHT22;56610;48.872;2.400;2022-08-19T15:06:06;27.40;99.90
69418;DHT22;56610;48.872;2.400;2022-08-19T15:08:33;27.40;99.90
69418;DHT22;56610;48.872;2.400;2022-08-19T15:11:00;27.50;99.90
69418;DHT22;56610;48.872;2.400;2022-08-19T15:13:28;27.60;99.90
69418;DHT22;56610;48.872;2.400;2022-08-19T15:15:56;27.50;99.90
69418;DHT22;56610;48.872;2.400;2022-08-19T15:18:22;27.40;99.90
69418;DHT22;56610;48.872;2.400;2022-08-19T15:20:49;27.30;99.90
69418;DHT22;56610;48.872;2.400;2022-08-19T15:23:16;27.00;99.90
69418;DHT22;56610;48.872;2.400;2022-08-19T15:25:42;26.80;99.90
69418;DHT22;56610;48.872;2.400;2022-08-19T15:28:09;26.90;99.90
69418;DHT22;56610;48.872;2.400;2022-08-19T15:30:36;26.90;99.90
69418;DHT22;56610;48.872;2.400;2022-08-19T15:33:02;26.80;99.90
69418;DHT22;56610;48.872;2.400;2022-08-19T15:35:28;26.60;99.90
69418;DHT22;56610;48.872;2.400;2022-08-19T15:37:54;26.40;99.90
69418;DHT22;56610;48.872;2.400;2022-08-19T15:40:22;26.20;99.90
69418;DHT22;56610;48.872;2.400;2022-08-19T15:42:48;26.10;99.90
69418;DHT22;56610;48.872;2.400;2022-08-19T15:45:16;26.10;99.90
69418;DHT22;56610;48.872;2.400;2022-08-19T15:47:42;26.00;99.90
69418;DHT22;56610;48.872;2.400;2022-08-19T15:50:10;26.10;99.90
69418;DHT22;56610;48.872;2.400;2022-08-19T15:52:51;26.10;99.90
69418;DHT22;56610;48.872;2.400;2022-08-19T15:55:21;26.10;99.90